createdAt,value
2022-12-31T00:05:40.203Z,6.90
2022-12-31T00:19:40.189Z,6.60
2022-12-31T00:33:40.238Z,6.50
2022-12-31T00:47:40.237Z,6.20
2022-12-31T01:01:40.254Z,5.80
2022-12-31T01:15:40.242Z,5.35
2022-12-31T01:29:40.212Z,5.75
2022-12-31T01:43:40.232Z,5.40
2022-12-31T01:57:40.199Z,5.00
2022-12-31T02:11:40.196Z,5.00
2022-12-31T02:25:40.223Z,4.60
2022-12-31T02:39:40.269Z,4.70
2022-12-31T02:53:40.289Z,4.30
2022-12-31T03:07:40.260Z,3.80
2022-12-31T03:21:40.447Z,3.80
2022-12-31T03:35:40.451Z,3.50
2022-12-31T03:49:40.470Z,3.30
2022-12-31T04:03:40.503Z,3.40
2022-12-31T04:17:40.534Z,3.20
2022-12-31T04:31:40.605Z,2.80
2022-12-31T04:45:40.592Z,2.70
2022-12-31T04:59:40.566Z,2.70
2022-12-31T05:13:40.564Z,2.45
2022-12-31T05:27:40.579Z,2.45
2022-12-31T05:41:40.579Z,2.40
2022-12-31T05:55:40.579Z,2.20
2022-12-31T06:09:40.574Z,2.30
2022-12-31T06:23:40.625Z,2.00
2022-12-31T06:37:40.577Z,1.90
2022-12-31T06:52:40.625Z,1.80
2022-12-31T07:07:40.643Z,1.90
2022-12-31T07:22:40.594Z,1.80
2022-12-31T07:37:40.609Z,1.85
2022-12-31T07:52:40.588Z,1.80
2022-12-31T08:07:40.619Z,2.10
2022-12-31T08:22:40.626Z,2.00
2022-12-31T08:37:40.611Z,1.90
2022-12-31T08:52:40.626Z,2.30
2022-12-31T09:07:40.618Z,2.50
2022-12-31T09:22:40.631Z,2.90
2022-12-31T09:37:40.730Z,3.00
2022-12-31T09:52:40.745Z,3.10
2022-12-31T10:07:40.721Z,3.00
2022-12-31T10:22:40.742Z,3.20
2022-12-31T10:37:40.722Z,2.85
2022-12-31T10:52:42.029Z,3.20
2022-12-31T11:07:40.734Z,3.40
2022-12-31T11:22:40.776Z,3.40
2022-12-31T11:37:40.774Z,3.70
2022-12-31T11:53:40.806Z,3.70
2022-12-31T12:08:40.796Z,3.70
2022-12-31T12:23:40.824Z,3.70
2022-12-31T12:38:40.798Z,3.90
2022-12-31T12:53:40.797Z,3.90
2022-12-31T13:08:40.830Z,3.70
2022-12-31T13:23:40.826Z,3.80
2022-12-31T13:38:40.812Z,4.25
2022-12-31T13:53:40.860Z,4.00
2022-12-31T14:08:40.852Z,3.90
2022-12-31T14:24:40.884Z,4.00
2022-12-31T14:39:40.881Z,3.80
2022-12-31T14:54:40.867Z,4.30
2022-12-31T15:09:40.861Z,3.90
2022-12-31T15:24:40.853Z,4.50
2022-12-31T15:39:40.878Z,4.30
2022-12-31T15:56:40.869Z,4.10
2022-12-31T16:11:40.886Z,4.90
2022-12-31T16:25:40.885Z,5.00
2022-12-31T16:39:40.905Z,5.45
2022-12-31T16:53:40.921Z,5.45
2022-12-31T17:07:40.891Z,6.15
2022-12-31T17:21:40.943Z,6.50
2022-12-31T17:35:40.920Z,6.30
2022-12-31T17:49:40.983Z,6.70
2022-12-31T18:03:41.040Z,7.00
2022-12-31T18:17:41.111Z,7.20
2022-12-31T18:31:41.175Z,7.10
2022-12-31T18:45:41.132Z,7.60
2022-12-31T18:59:41.145Z,7.50
2022-12-31T19:13:41.179Z,7.80
2022-12-31T19:27:41.196Z,8.10
2022-12-31T19:41:41.160Z,8.20
2022-12-31T19:55:41.223Z,8.30
2022-12-31T20:09:41.201Z,8.60
2022-12-31T20:23:41.195Z,8.50
2022-12-31T20:37:41.237Z,9.10
2022-12-31T20:51:41.230Z,8.70
2022-12-31T21:05:41.416Z,9.00
2022-12-31T21:19:41.240Z,9.10
2022-12-31T21:33:41.260Z,8.95
2022-12-31T21:47:47.035Z,8.65
2022-12-31T22:01:41.399Z,8.60
2022-12-31T22:15:41.388Z,8.40
2022-12-31T22:29:41.413Z,8.50
2022-12-31T22:43:41.560Z,8.80
2022-12-31T22:57:41.668Z,8.10
2022-12-31T23:11:41.813Z,8.40
2022-12-31T23:25:42.032Z,8.50
2022-12-31T23:39:41.999Z,8.50
2022-12-31T23:53:42.027Z,7.70
